Time;durP1;ratioP1;P1;durP2;ratioP2;P2;SDS_P1;SDS_P2;PMS_P1;PMS_P2;Temp;Humidity;BMP_temperature;BMP_pressure;BME280_temperature;BME280_humidity;BME280_pressure;Samples;Min_cycle;Max_cycle;Signal;HPM_P1;HPM_P2
2021/12/19 00:00:09;;;;;;;4.63;3.97;;;;;;;;;;4996697;28;20267;-87
2021/12/19 00:02:49;;;;;;;7.22;5.68;;;;;;;;;;4998272;28;20184;-87
2021/12/19 00:10:48;;;;;;;6.03;4.93;;;;;;;;;;4999785;28;20274;-86
2021/12/19 00:13:24;;;;;;;6.07;5.43;;;;;;;;;;4999757;28;20645;-86
2021/12/19 00:15:54;;;;;;;7.65;4.72;;;;;;;;;;5004173;28;20205;-87
2021/12/19 00:18:22;;;;;;;8.48;5.68;;;;;;;;;;5018430;28;20210;-87
2021/12/19 00:20:55;;;;;;;6.63;4.82;;;;;;;;;;5018191;28;20195;-86
2021/12/19 00:23:23;;;;;;;7.82;5.30;;;;;;;;;;5019140;28;20195;-86
2021/12/19 00:25:52;;;;;;;9.57;5.53;;;;;;;;;;4999550;28;20207;-86
2021/12/19 00:28:19;;;;;;;5.68;5.18;;;;;;;;;;4998661;28;20204;-86
2021/12/19 00:30:49;;;;;;;5.88;5.28;;;;;;;;;;4998747;28;20637;-87
2021/12/19 00:33:23;;;;;;;6.47;5.78;;;;;;;;;;4999235;28;20192;-86
2021/12/19 09:40:21;;;;;;;0.60;0.60;;;;;;;;;;5292761;23;20657;-85
2021/12/19 09:42:51;;;;;;;0.50;0.50;;;;;;;;;;4956713;29;20205;-87
2021/12/19 09:45:20;;;;;;;0.43;0.43;;;;;;;;;;4953494;29;20254;-87
2021/12/19 09:47:52;;;;;;;0.60;0.60;;;;;;;;;;4960798;28;20256;-86
2021/12/19 09:50:20;;;;;;;0.50;0.50;;;;;;;;;;4959056;28;20205;-85
2021/12/19 09:52:53;;;;;;;1.20;0.60;;;;;;;;;;4959875;28;20198;-86
2021/12/19 09:55:22;;;;;;;0.50;0.50;;;;;;;;;;4958485;28;20225;-86
2021/12/19 09:57:53;;;;;;;0.40;0.40;;;;;;;;;;4958207;29;20182;-85
2021/12/19 10:00:22;;;;;;;0.40;0.40;;;;;;;;;;4958747;29;20600;-86
2021/12/19 10:02:50;;;;;;;0.60;0.60;;;;;;;;;;4959419;28;20212;-88
2021/12/19 10:05:22;;;;;;;0.50;0.50;;;;;;;;;;4959470;28;20593;-84
2021/12/19 10:07:52;;;;;;;0.40;0.40;;;;;;;;;;4959278;29;20189;-87
2021/12/19 10:10:42;;;;;;;0.70;0.70;;;;;;;;;;4957868;28;20201;-86
2021/12/19 10:13:10;;;;;;;0.60;0.60;;;;;;;;;;4956992;29;20197;-88
2021/12/19 10:15:41;;;;;;;0.70;0.70;;;;;;;;;;4957260;29;20311;-85
2021/12/19 10:18:12;;;;;;;0.50;0.50;;;;;;;;;;4957342;29;20198;-87
2021/12/19 10:20:51;;;;;;;0.60;0.60;;;;;;;;;;4957119;28;20294;-88
2021/12/19 10:23:22;;;;;;;0.52;0.52;;;;;;;;;;4955941;29;20189;-87
2021/12/19 10:26:00;;;;;;;0.50;0.50;;;;;;;;;;4957093;29;20220;-88
2021/12/19 10:28:30;;;;;;;2.83;0.60;;;;;;;;;;4955044;28;20207;-87
2021/12/19 10:31:01;;;;;;;0.47;0.47;;;;;;;;;;4955713;29;20659;-88
2021/12/19 10:33:32;;;;;;;0.68;0.68;;;;;;;;;;4955165;29;20204;-87
2021/12/19 10:36:02;;;;;;;0.63;0.63;;;;;;;;;;4955414;29;20300;-87
2021/12/19 10:38:33;;;;;;;0.82;0.80;;;;;;;;;;4937732;29;20197;-87
2021/12/19 10:41:10;;;;;;;0.60;0.60;;;;;;;;;;4951208;29;20224;-87
2021/12/19 10:43:56;;;;;;;0.70;0.70;;;;;;;;;;4956681;29;20268;-88
2021/12/19 10:46:28;;;;;;;0.55;0.55;;;;;;;;;;4956038;29;20337;-87
2021/12/19 10:48:58;;;;;;;0.65;0.65;;;;;;;;;;4956143;29;20272;-87
2021/12/19 10:51:30;;;;;;;0.80;0.80;;;;;;;;;;4955645;29;20200;-87
2021/12/19 10:54:07;;;;;;;0.70;0.70;;;;;;;;;;4956826;28;20228;-87
2021/12/19 10:56:40;;;;;;;2.00;0.60;;;;;;;;;;4955885;29;20292;-87
2021/12/19 10:59:18;;;;;;;0.70;0.70;;;;;;;;;;4956654;29;20189;-86
2021/12/19 11:01:51;;;;;;;0.73;0.73;;;;;;;;;;4956112;29;20185;-87
2021/12/19 11:04:24;;;;;;;0.60;0.60;;;;;;;;;;4955535;29;20227;-86
2021/12/19 11:06:56;;;;;;;0.95;0.95;;;;;;;;;;4956385;29;20212;-86
2021/12/19 11:09:27;;;;;;;0.80;0.80;;;;;;;;;;4955912;29;20222;-86
2021/12/19 11:11:58;;;;;;;0.80;0.80;;;;;;;;;;4937263;29;20614;-86
2021/12/19 11:14:30;;;;;;;1.30;1.20;;;;;;;;;;4939759;29;20220;-86
2021/12/19 11:17:21;;;;;;;0.80;0.80;;;;;;;;;;4957677;28;20292;-86
2021/12/19 11:20:02;;;;;;;0.82;0.82;;;;;;;;;;4955210;29;20205;-86
2021/12/19 11:22:44;;;;;;;0.90;0.90;;;;;;;;;;4959017;29;20263;-85
2021/12/19 11:25:12;;;;;;;0.65;0.65;;;;;;;;;;4958758;29;20224;-86
2021/12/19 11:27:41;;;;;;;1.10;1.10;;;;;;;;;;4955824;29;20256;-86
2021/12/19 11:30:10;;;;;;;1.15;1.15;;;;;;;;;;4949858;29;20213;-85
2021/12/19 11:32:50;;;;;;;0.88;0.88;;;;;;;;;;4948980;29;20185;-87
2021/12/19 11:35:24;;;;;;;0.90;0.90;;;;;;;;;;4959185;29;20252;-86
2021/12/19 11:37:57;;;;;;;1.00;0.90;;;;;;;;;;4959655;29;20193;-87
2021/12/19 11:40:26;;;;;;;0.75;0.75;;;;;;;;;;4958664;29;20234;-87
2021/12/19 11:43:03;;;;;;;0.90;0.90;;;;;;;;;;4958988;29;20189;-88
2021/12/19 11:45:35;;;;;;;0.90;0.90;;;;;;;;;;4959137;29;20227;-88
2021/12/19 11:48:17;;;;;;;0.82;0.82;;;;;;;;;;4958610;29;20193;-88
2021/12/19 11:50:49;;;;;;;1.02;0.90;;;;;;;;;;4958639;29;20193;-87
2021/12/19 11:53:27;;;;;;;0.80;0.80;;;;;;;;;;4958378;29;20181;-87
2021/12/19 11:55:57;;;;;;;0.85;0.85;;;;;;;;;;4958070;28;20234;-88
2021/12/19 11:58:42;;;;;;;0.88;0.80;;;;;;;;;;4958172;29;20381;-88
2021/12/19 12:01:14;;;;;;;0.80;0.80;;;;;;;;;;4955010;28;20201;-88
2021/12/19 12:03:54;;;;;;;0.75;0.75;;;;;;;;;;4957695;29;20196;-87
2021/12/19 12:06:40;;;;;;;0.77;0.77;;;;;;;;;;4957850;28;20224;-87
2021/12/19 12:09:26;;;;;;;0.68;0.68;;;;;;;;;;4958478;29;20225;-87
2021/12/19 12:12:24;;;;;;;1.00;1.00;;;;;;;;;;4958873;29;20652;-87
2021/12/19 12:15:07;;;;;;;0.98;0.98;;;;;;;;;;4953973;28;20217;-88
2021/12/19 12:17:46;;;;;;;1.27;1.20;;;;;;;;;;4938680;29;20208;-87
2021/12/19 12:20:32;;;;;;;0.90;0.90;;;;;;;;;;4956945;29;20228;-86
2021/12/19 12:23:10;;;;;;;0.90;0.90;;;;;;;;;;4958248;29;20222;-87
2021/12/19 12:25:43;;;;;;;0.85;0.85;;;;;;;;;;4958045;29;20307;-88
2021/12/19 12:28:15;;;;;;;0.80;0.80;;;;;;;;;;4957160;29;20185;-89
2021/12/19 12:30:47;;;;;;;1.30;1.20;;;;;;;;;;4956789;29;20305;-88
2021/12/19 12:33:18;;;;;;;1.20;1.10;;;;;;;;;;4956874;29;20189;-88
2021/12/19 12:35:48;;;;;;;1.25;1.15;;;;;;;;;;4957716;29;20225;-85
